Time;durP1;ratioP1;P1;durP2;ratioP2;P2;SDS_P1;SDS_P2;PMS_P1;PMS_P2;Temp;Humidity;BMP_temperature;BMP_pressure;BME280_temperature;BME280_humidity;BME280_pressure;Samples;Min_cycle;Max_cycle;Signal;HPM_P1;HPM_P2
2023/06/29 00:00:40;;;;;;;22.67;16.83;;;21.80;74.20;;;;;;5052965;28;20027;-64
2023/06/29 00:03:06;;;;;;;25.10;18.13;;;21.70;74.30;;;;;;5071109;28;20013;-63
2023/06/29 00:05:32;;;;;;;25.45;18.50;;;21.80;74.50;;;;;;5051956;28;20063;-63
2023/06/29 00:07:59;;;;;;;22.55;16.50;;;21.70;74.40;;;;;;5074491;28;20415;-64
2023/06/29 00:10:25;;;;;;;24.73;18.08;;;21.70;74.50;;;;;;5070789;28;20040;-63
2023/06/29 00:12:53;;;;;;;23.85;18.63;;;21.70;74.60;;;;;;5072736;28;20037;-63
2023/06/29 00:15:18;;;;;;;25.08;19.52;;;21.60;74.70;;;;;;5067153;28;20028;-64
2023/06/29 00:17:47;;;;;;;25.30;18.55;;;21.60;74.80;;;;;;5073420;28;20047;-64
2023/06/29 00:20:13;;;;;;;23.38;18.15;;;21.60;75.00;;;;;;5072424;28;20039;-63
2023/06/29 00:22:40;;;;;;;23.00;18.63;;;21.50;75.00;;;;;;5056621;28;20047;-63
2023/06/29 00:25:10;;;;;;;24.92;18.55;;;21.50;75.10;;;;;;5054311;28;20400;-63
2023/06/29 00:27:36;;;;;;;23.60;18.42;;;21.50;75.20;;;;;;5073439;28;20047;-64
2023/06/29 00:30:02;;;;;;;21.92;18.15;;;21.50;75.30;;;;;;5072256;28;20029;-63
2023/06/29 00:32:29;;;;;;;26.20;18.77;;;21.40;75.40;;;;;;5050265;28;20032;-64
2023/06/29 00:34:55;;;;;;;24.50;18.15;;;21.40;75.50;;;;;;5055322;28;20455;-64
2023/06/29 00:37:20;;;;;;;27.00;19.20;;;21.40;75.60;;;;;;5071323;28;20094;-63
2023/06/29 00:39:46;;;;;;;25.63;18.85;;;21.40;75.70;;;;;;5056128;28;20032;-63
2023/06/29 00:42:12;;;;;;;26.67;18.67;;;21.30;75.80;;;;;;5072291;28;20326;-65
2023/06/29 00:44:37;;;;;;;25.13;19.70;;;21.30;75.90;;;;;;5055032;28;20445;-63
2023/06/29 00:47:04;;;;;;;23.85;18.40;;;21.30;75.90;;;;;;5054862;28;20032;-64
2023/06/29 00:49:29;;;;;;;25.15;18.45;;;21.20;75.90;;;;;;5056114;28;20039;-63
2023/06/29 00:51:56;;;;;;;24.25;19.13;;;21.20;76.00;;;;;;5071618;28;20339;-63
2023/06/29 00:54:22;;;;;;;22.38;17.63;;;21.20;76.20;;;;;;5072548;28;20055;-64
2023/06/29 00:56:49;;;;;;;22.92;18.77;;;21.20;76.20;;;;;;5071119;28;20021;-63
2023/06/29 00:59:15;;;;;;;23.63;17.90;;;21.20;76.30;;;;;;5056087;28;20025;-63
2023/06/29 01:01:43;;;;;;;25.50;19.60;;;21.10;76.40;;;;;;5055004;28;20021;-63
2023/06/29 01:04:22;;;;;;;22.42;18.50;;;21.10;76.40;;;;;;5045511;28;20064;-64
2023/06/29 01:07:22;;;;;;;25.63;19.95;;;21.10;76.50;;;;;;5052340;28;20516;-63
2023/06/29 01:09:48;;;;;;;23.17;19.15;;;21.10;76.60;;;;;;5071974;28;20079;-64
2023/06/29 01:12:15;;;;;;;27.05;19.60;;;21.00;76.50;;;;;;5038017;28;20032;-64
2023/06/29 01:14:43;;;;;;;27.98;19.35;;;21.10;76.80;;;;;;5056007;28;20488;-63
2023/06/29 01:17:12;;;;;;;24.67;18.98;;;21.00;76.70;;;;;;5053356;28;20020;-63
2023/06/29 01:19:38;;;;;;;24.20;18.88;;;21.10;76.90;;;;;;5073083;28;20024;-63
2023/06/29 01:22:24;;;;;;;28.13;18.55;;;21.00;76.90;;;;;;5037400;28;20025;-63
2023/06/29 01:24:51;;;;;;;26.52;19.65;;;21.10;77.00;;;;;;5061536;28;20484;-63
2023/06/29 01:27:17;;;;;;;24.42;19.02;;;21.00;77.00;;;;;;5071091;28;20078;-63
2023/06/29 01:29:43;;;;;;;24.90;18.42;;;21.00;77.20;;;;;;5063911;28;20345;-64
2023/06/29 01:32:10;;;;;;;25.90;19.98;;;21.00;77.20;;;;;;5077027;28;20035;-63
2023/06/29 01:34:38;;;;;;;26.98;20.13;;;21.00;77.20;;;;;;5077277;28;20024;-63
2023/06/29 01:37:16;;;;;;;25.70;20.33;;;21.00;77.30;;;;;;5076168;28;20033;-63
2023/06/29 01:39:49;;;;;;;25.48;18.50;;;21.00;77.40;;;;;;5077706;28;20021;-63
2023/06/29 01:42:17;;;;;;;25.63;18.65;;;21.00;77.40;;;;;;5076874;28;20480;-63
2023/06/29 01:44:43;;;;;;;25.63;19.35;;;21.00;77.50;;;;;;5077153;28;20446;-63
2023/06/29 01:47:10;;;;;;;25.38;19.83;;;21.00;77.50;;;;;;5074495;28;20031;-63
2023/06/29 01:49:36;;;;;;;26.80;20.23;;;21.00;77.60;;;;;;5076691;28;20036;-64
2023/06/29 01:52:04;;;;;;;24.48;19.70;;;21.00;77.70;;;;;;5076136;28;20029;-64
2023/06/29 01:54:30;;;;;;;26.23;19.45;;;21.00;77.70;;;;;;5075804;28;20037;-63
2023/06/29 01:56:56;;;;;;;25.45;20.27;;;21.00;77.80;;;;;;5041720;28;20124;-63
2023/06/29 01:59:22;;;;;;;28.17;20.38;;;21.00;77.80;;;;;;5057764;28;20112;-63
2023/06/29 02:01:47;;;;;;;24.33;19.02;;;21.00;77.90;;;;;;5058108;28;20025;-63
2023/06/29 02:04:13;;;;;;;26.73;20.42;;;21.00;77.90;;;;;;5058343;28;20028;-63
2023/06/29 02:06:39;;;;;;;27.50;21.08;;;21.10;78.00;;;;;;5076088;28;20375;-64
2023/06/29 02:09:05;;;;;;;27.92;21.55;;;21.00;77.90;;;;;;5073101;28;20036;-63
2023/06/29 02:11:30;;;;;;;27.52;21.83;;;21.10;78.10;;;;;;5058713;28;20024;-63
2023/06/29 02:13:56;;;;;;;30.15;22.67;;;21.10;78.10;;;;;;5058089;28;20493;-63
2023/06/29 02:16:22;;;;;;;29.02;22.25;;;21.10;78.20;;;;;;5042321;28;20358;-63
2023/06/29 02:18:48;;;;;;;32.55;23.92;;;21.10;78.20;;;;;;5057375;28;20256;-64
2023/06/29 02:21:13;;;;;;;30.52;23.30;;;21.10;78.30;;;;;;5075648;28;20067;-64
2023/06/29 02:23:39;;;;;;;29.92;24.48;;;21.10;78.40;;;;;;5057880;28;20028;-64
2023/06/29 02:26:05;;;;;;;29.95;23.13;;;21.20;78.50;;;;;;5076680;28;20110;-63
2023/06/29 02:28:35;;;;;;;32.53;25.38;;;21.20;78.50;;;;;;5073952;28;20450;-63
2023/06/29 02:31:01;;;;;;;33.88;25.13;;;21.20;78.50;;;;;;5074559;28;20036;-63
2023/06/29 02:33:28;;;;;;;32.40;25.25;;;21.20;78.60;;;;;;5074520;28;20032;-63
2023/06/29 02:35:54;;;;;;;31.52;25.13;;;21.20;78.60;;;;;;5058327;28;20335;-63
2023/06/29 02:38:19;;;;;;;35.50;25.27;;;21.20;78.70;;;;;;5040543;28;20044;-63
2023/06/29 02:40:45;;;;;;;32.58;25.45;;;21.20;78.70;;;;;;5055418;28;20028;-63
2023/06/29 02:43:12;;;;;;;33.38;25.65;;;21.20;78.70;;;;;;5056590;28;20027;-63
2023/06/29 02:45:37;;;;;;;30.75;24.25;;;21.20;78.70;;;;;;5058362;28;20089;-63
2023/06/29 02:48:03;;;;;;;34.95;25.52;;;21.20;78.70;;;;;;5057496;28;20029;-63
2023/06/29 02:50:29;;;;;;;33.55;25.15;;;21.20;78.80;;;;;;5057152;28;20319;-64
2023/06/29 02:52:55;;;;;;;33.45;25.45;;;21.30;78.90;;;;;;5057171;28;20072;-63
2023/06/29 02:55:23;;;;;;;34.35;24.98;;;21.30;79.60;;;;;;5057311;28;20079;-63
2023/06/29 02:57:49;;;;;;;30.27;23.98;;;21.30;78.90;;;;;;5041102;28;20056;-63
2023/06/29 03:00:15;;;;;;;32.55;24.33;;;21.30;78.90;;;;;;5055499;28;20047;-63
2023/06/29 03:02:41;;;;;;;34.15;25.63;;;21.30;78.90;;;;;;5056274;28;20024;-63
2023/06/29 03:05:07;;;;;;;34.53;26.35;;;21.30;78.90;;;;;;5057972;28;20081;-64
2023/06/29 03:07:34;;;;;;;31.17;24.85;;;21.30;78.90;;;;;;5057039;28;20017;-63
2023/06/29 03:10:01;;;;;;;35.15;25.48;;;21.30;78.90;;;;;;5055914;28;20032;-63
2023/06/29 03:12:27;;;;;;;34.47;26.50;;;21.30;78.90;;;;;;5055958;28;20115;-63
2023/06/29 03:14:53;;;;;;;34.13;27.10;;;21.30;78.90;;;;;;5074074;28;20033;-64
2023/06/29 03:17:19;;;;;;;36.08;27.13;;;21.30;78.90;;;;;;5075069;28;20077;-64
2023/06/29 03:19:45;;;;;;;32.78;26.98;;;21.30;78.90;;;;;;5057081;28;20073;-63
2023/06/29 03:22:11;;;;;;;35.08;27.92;;;21.30;79.00;;;;;;5041027;28;20016;-64
2023/06/29 03:24:36;;;;;;;32.40;25.10;;;21.30;79.00;;;;;;5073340;28;20020;-63
2023/06/29 03:27:04;;;;;;;31.20;25.65;;;21.30;79.10;;;;;;5075052;28;20055;-63
2023/06/29 03:29:30;;;;;;;31.42;25.55;;;21.30;79.10;;;;;;5074296;28;20037;-64
2023/06/29 03:31:56;;;;;;;37.10;27.38;;;21.30;79.20;;;;;;5075181;28;20035;-63
2023/06/29 03:34:22;;;;;;;35.17;27.77;;;21.30;79.10;;;;;;5053156;28;20111;-64
2023/06/29 03:36:48;;;;;;;33.80;26.05;;;21.30;79.10;;;;;;5072431;28;20182;-63
2023/06/29 03:39:14;;;;;;;33.95;27.70;;;21.30;79.10;;;;;;5055398;28;20023;-64
2023/06/29 03:41:39;;;;;;;35.47;26.55;;;21.30;79.10;;;;;;5057638;28;20074;-63
2023/06/29 03:44:05;;;;;;;34.28;26.35;;;21.30;79.10;;;;;;5070600;28;20028;-63
2023/06/29 03:46:31;;;;;;;33.95;27.23;;;21.30;79.10;;;;;;5055456;28;20078;-63
2023/06/29 03:48:56;;;;;;;33.10;26.52;;;21.30;79.10;;;;;;5073790;28;20399;-64
2023/06/29 03:51:22;;;;;;;33.03;26.10;;;21.30;79.10;;;;;;5069436;28;20107;-64
2023/06/29 03:53:48;;;;;;;33.92;25.10;;;21.40;79.20;;;;;;5027432;28;20102;-63
2023/06/29 03:56:15;;;;;;;32.15;25.55;;;21.40;79.20;;;;;;5051431;28;20040;-63
2023/06/29 03:58:40;;;;;;;32.92;25.23;;;21.30;79.10;;;;;;5065013;28;20025;-63
2023/06/29 04:01:06;;;;;;;38.17;28.73;;;21.40;79.20;;;;;;5061614;28;20091;-63
2023/06/29 04:03:32;;;;;;;33.25;27.45;;;21.40;79.20;;;;;;5060505;28;20404;-64
2023/06/29 04:05:59;;;;;;;34.70;26.52;;;21.40;79.10;;;;;;5059033;28;20066;-63
2023/06/29 04:08:25;;;;;;;35.10;27.45;;;21.30;79.10;;;;;;5051975;28;20050;-63
2023/06/29 04:10:50;;;;;;;35.35;27.73;;;21.40;79.10;;;;;;5068870;28;20433;-63
2023/06/29 04:13:16;;;;;;;33.85;26.88;;;21.40;79.10;;;;;;5060002;28;20035;-63
2023/06/29 04:15:42;;;;;;;33.47;26.40;;;21.40;79.10;;;;;;5057330;28;20365;-63
2023/06/29 04:18:07;;;;;;;35.17;27.05;;;21.40;79.10;;;;;;5056698;28;20028;-64
2023/06/29 04:20:33;;;;;;;35.88;27.30;;;21.40;79.10;;;;;;5054780;28;20369;-63
2023/06/29 04:22:59;;;;;;;34.53;27.88;;;21.40;79.00;;;;;;5051386;28;20025;-63
2023/06/29 04:25:25;;;;;;;35.47;26.83;;;21.40;78.90;;;;;;5041201;28;20037;-64
2023/06/29 04:27:50;;;;;;;34.83;27.00;;;21.40;78.80;;;;;;5053386;28;20026;-63
2023/06/29 04:30:17;;;;;;;31.70;26.02;;;21.40;78.80;;;;;;5050988;28;20021;-63
2023/06/29 04:32:44;;;;;;;30.52;25.15;;;21.40;78.80;;;;;;5062301;28;20033;-63
2023/06/29 04:35:09;;;;;;;34.42;25.48;;;21.40;78.90;;;;;;5073813;28;20021;-63
2023/06/29 04:37:42;;;;;;;32.92;27.02;;;21.40;78.90;;;;;;5067276;28;20029;-63
2023/06/29 04:40:10;;;;;;;34.90;27.05;;;21.40;78.80;;;;;;5056493;28;20040;-63
2023/06/29 04:42:48;;;;;;;32.08;25.75;;;21.40;78.80;;;;;;5033178;28;20404;-64
2023/06/29 04:45:17;;;;;;;33.65;25.08;;;21.40;78.80;;;;;;5056508;28;20040;-63
2023/06/29 04:47:45;;;;;;;31.48;24.70;;;21.50;78.80;;;;;;5071943;28;20058;-63
2023/06/29 04:50:11;;;;;;;32.88;26.73;;;21.50;78.70;;;;;;5070235;28;20353;-63
2023/06/29 04:52:37;;;;;;;34.67;25.42;;;21.50;78.60;;;;;;5053907;28;20479;-63
2023/06/29 04:55:07;;;;;;;32.55;25.60;;;21.50;78.50;;;;;;5072791;28;20170;-63
2023/06/29 04:57:33;;;;;;;32.53;25.83;;;21.50;78.60;;;;;;5072787;28;20054;-63
2023/06/29 04:59:59;;;;;;;34.08;26.80;;;21.50;78.60;;;;;;5068978;28;20389;-64
2023/06/29 05:02:24;;;;;;;33.92;24.88;;;21.50;79.20;;;;;;5055332;28;20028;-64
2023/06/29 05:04:50;;;;;;;32.97;26.08;;;21.60;78.50;;;;;;5068160;28;20126;-64
2023/06/29 05:07:16;;;;;;;33.15;25.23;;;21.60;78.50;;;;;;5055209;28;20020;-64
2023/06/29 05:09:42;;;;;;;31.38;24.77;;;21.60;78.50;;;;;;5053073;28;20125;-64
2023/06/29 05:12:09;;;;;;;33.70;24.80;;;21.60;78.50;;;;;;5070907;28;20103;-64
2023/06/29 05:14:35;;;;;;;34.03;26.20;;;21.60;78.40;;;;;;5058032;28;20130;-64
2023/06/29 05:17:01;;;;;;;30.30;25.10;;;21.60;78.30;;;;;;5054276;28;20076;-64
2023/06/29 05:19:26;;;;;;;32.03;24.65;;;21.60;78.20;;;;;;5073086;28;20051;-64
2023/06/29 05:21:52;;;;;;;30.42;24.17;;;21.60;78.20;;;;;;5072587;28;20509;-64
2023/06/29 05:24:18;;;;;;;31.05;25.45;;;21.60;78.20;;;;;;5070918;28;20035;-64
2023/06/29 05:26:44;;;;;;;31.45;24.10;;;21.60;78.30;;;;;;5072063;28;20126;-64
2023/06/29 05:29:10;;;;;;;32.25;26.00;;;21.60;78.40;;;;;;5055266;28;20068;-64
2023/06/29 05:31:36;;;;;;;31.50;26.05;;;21.60;78.40;;;;;;5071785;28;20024;-64
2023/06/29 05:34:01;;;;;;;32.03;26.67;;;21.60;78.40;;;;;;5072396;28;20029;-64
2023/06/29 05:36:29;;;;;;;33.78;26.27;;;21.60;78.40;;;;;;5056212;28;20043;-64
2023/06/29 05:38:55;;;;;;;31.85;25.30;;;21.60;78.40;;;;;;5055953;28;20410;-64
2023/06/29 05:41:20;;;;;;;33.58;24.23;;;21.70;78.50;;;;;;5055871;28;20052;-64
2023/06/29 05:43:46;;;;;;;29.73;24.15;;;21.70;78.40;;;;;;5070287;28;20377;-64
2023/06/29 05:46:12;;;;;;;27.90;23.58;;;21.70;78.40;;;;;;5072816;28;20436;-64
2023/06/29 05:48:38;;;;;;;28.27;22.75;;;21.70;78.30;;;;;;5073805;28;20029;-64
2023/06/29 05:51:03;;;;;;;29.30;23.00;;;21.80;78.30;;;;;;5072412;28;20039;-64
2023/06/29 05:53:30;;;;;;;27.85;21.48;;;21.80;78.20;;;;;;5071272;28;20040;-64
2023/06/29 05:55:56;;;;;;;29.98;23.00;;;21.80;78.00;;;;;;5072355;28;20028;-64
2023/06/29 05:58:23;;;;;;;35.03;23.50;;;21.90;77.90;;;;;;5071309;28;20547;-64
2023/06/29 06:00:51;;;;;;;30.85;22.88;;;22.00;77.90;;;;;;5070531;28;20092;-64
2023/06/29 06:03:16;;;;;;;28.67;21.85;;;22.00;77.80;;;;;;5070377;28;20056;-65
2023/06/29 06:05:43;;;;;;;28.65;22.65;;;22.10;77.70;;;;;;5053590;28;20021;-64
2023/06/29 06:08:09;;;;;;;30.98;22.80;;;22.10;77.50;;;;;;5054386;28;20361;-65
2023/06/29 06:10:35;;;;;;;29.58;20.92;;;22.20;77.30;;;;;;5054696;28;20032;-64
2023/06/29 06:13:02;;;;;;;27.65;22.35;;;22.20;77.10;;;;;;5072072;28;20028;-64
2023/06/29 06:15:28;;;;;;;29.23;21.60;;;22.20;77.00;;;;;;5071942;28;20033;-64
2023/06/29 06:17:54;;;;;;;28.38;21.85;;;22.30;76.80;;;;;;5058165;28;20035;-64
2023/06/29 06:20:19;;;;;;;28.83;21.05;;;22.30;76.60;;;;;;5075723;28;20036;-65
2023/06/29 06:22:45;;;;;;;26.77;20.80;;;22.30;76.60;;;;;;5076654;28;20065;-64
2023/06/29 06:25:14;;;;;;;27.50;20.83;;;22.30;76.50;;;;;;5072917;28;20032;-65
2023/06/29 06:27:41;;;;;;;28.63;20.70;;;22.30;76.40;;;;;;5074921;28;20059;-65
2023/06/29 06:30:08;;;;;;;31.75;22.08;;;22.30;76.20;;;;;;5075830;28;20353;-64
2023/06/29 06:32:34;;;;;;;26.20;19.58;;;22.40;76.20;;;;;;5076441;28;20025;-65
2023/06/29 06:35:00;;;;;;;28.23;20.10;;;22.30;76.20;;;;;;5073492;28;20055;-64
2023/06/29 06:37:25;;;;;;;26.40;20.02;;;22.40;76.20;;;;;;5073114;28;20028;-64
2023/06/29 06:39:51;;;;;;;25.88;19.55;;;22.30;76.10;;;;;;5058622;28;20437;-65
2023/06/29 06:42:17;;;;;;;28.27;19.55;;;22.30;76.00;;;;;;5076374;28;20020;-66
2023/06/29 06:44:51;;;;;;;24.35;19.48;;;22.30;76.00;;;;;;5055086;28;20660;-63
2023/06/29 06:47:17;;;;;;;25.73;20.33;;;22.30;76.10;;;;;;5056102;28;20467;-65
2023/06/29 06:49:43;;;;;;;26.02;18.85;;;22.30;76.00;;;;;;5076960;28;20120;-64
2023/06/29 06:52:08;;;;;;;28.98;20.38;;;22.30;75.80;;;;;;5074406;28;20032;-64
2023/06/29 06:54:35;;;;;;;27.05;20.27;;;22.30;75.60;;;;;;5075856;28;20123;-64
2023/06/29 06:57:01;;;;;;;29.38;18.70;;;22.30;75.50;;;;;;5072456;28;20078;-64
2023/06/29 06:59:27;;;;;;;25.33;18.00;;;22.30;76.00;;;;;;5041828;28;20032;-64
2023/06/29 07:01:53;;;;;;;28.48;18.33;;;22.40;75.20;;;;;;5057881;28;20037;-65
2023/06/29 07:04:18;;;;;;;25.13;18.38;;;22.50;75.20;;;;;;5076222;28;20036;-64
2023/06/29 07:06:46;;;;;;;25.73;18.95;;;22.50;75.00;;;;;;5056710;28;20441;-65
2023/06/29 07:09:12;;;;;;;26.45;19.50;;;22.60;74.90;;;;;;5075996;28;20036;-64
2023/06/29 07:11:38;;;;;;;24.67;17.75;;;22.60;74.70;;;;;;5056568;28;20028;-64
2023/06/29 07:14:04;;;;;;;28.77;18.75;;;22.70;74.60;;;;;;5076011;28;20441;-64
2023/06/29 07:16:30;;;;;;;25.73;18.75;;;22.70;74.50;;;;;;5074177;28;20028;-64
2023/06/29 07:19:11;;;;;;;28.52;18.08;;;22.80;74.20;;;;;;5074447;28;20036;-64
2023/06/29 07:21:37;;;;;;;26.02;19.25;;;22.90;73.90;;;;;;5075708;28;20024;-64
2023/06/29 07:24:03;;;;;;;25.60;17.52;;;22.90;73.70;;;;;;5075755;28;20481;-64
2023/06/29 07:26:29;;;;;;;26.73;17.23;;;22.90;73.40;;;;;;5056874;28;20032;-64
2023/06/29 07:28:55;;;;;;;24.90;18.25;;;22.90;73.20;;;;;;5043468;28;20342;-63
2023/06/29 07:31:27;;;;;;;24.65;17.27;;;22.90;73.00;;;;;;5054637;28;20032;-64
2023/06/29 07:33:54;;;;;;;25.45;17.67;;;22.90;72.80;;;;;;5075765;28;20418;-64
2023/06/29 07:36:25;;;;;;;25.98;17.30;;;22.90;72.70;;;;;;5056918;28;20039;-64
2023/06/29 07:38:51;;;;;;;23.52;16.30;;;22.90;72.70;;;;;;5056939;28;20024;-64
2023/06/29 07:41:18;;;;;;;26.65;16.67;;;22.90;72.60;;;;;;5074733;28;20024;-64
2023/06/29 07:43:50;;;;;;;23.05;16.42;;;23.00;72.70;;;;;;5057901;28;20476;-64
2023/06/29 07:46:16;;;;;;;22.52;17.00;;;23.00;72.50;;;;;;5054580;28;20024;-64
2023/06/29 07:48:42;;;;;;;22.90;17.40;;;23.10;72.40;;;;;;5055174;28;20082;-63
2023/06/29 07:51:09;;;;;;;27.95;18.10;;;23.10;72.30;;;;;;5074438;28;20031;-64
2023/06/29 07:53:35;;;;;;;29.83;17.73;;;23.10;72.10;;;;;;5040693;28;20090;-63
2023/06/29 07:56:01;;;;;;;23.13;16.50;;;23.10;72.00;;;;;;5056832;28;20389;-63
2023/06/29 07:58:27;;;;;;;24.80;16.25;;;23.10;72.00;;;;;;5054945;28;20360;-62
2023/06/29 08:00:54;;;;;;;23.38;15.60;;;23.10;71.90;;;;;;5053725;28;20029;-63
2023/06/29 08:03:21;;;;;;;22.48;16.73;;;23.10;71.90;;;;;;5073844;28;20055;-63
2023/06/29 08:05:47;;;;;;;23.33;16.45;;;23.10;72.40;;;;;;5057380;28;20027;-63
2023/06/29 08:08:12;;;;;;;24.35;16.58;;;23.10;71.60;;;;;;5072049;28;20021;-62
2023/06/29 08:10:38;;;;;;;22.88;16.35;;;23.10;71.50;;;;;;5072128;28;20076;-63
2023/06/29 08:13:04;;;;;;;22.10;16.05;;;23.20;71.50;;;;;;5072518;28;20395;-64
2023/06/29 08:15:30;;;;;;;22.30;15.82;;;23.20;71.40;;;;;;5073525;28;20099;-63
2023/06/29 08:17:56;;;;;;;23.85;16.23;;;23.20;71.30;;;;;;5055820;28;20020;-63
2023/06/29 08:20:22;;;;;;;20.38;14.77;;;23.30;71.30;;;;;;5071711;28;20020;-63
2023/06/29 08:22:48;;;;;;;20.00;15.57;;;23.40;71.10;;;;;;5056537;28;20028;-63
2023/06/29 08:25:15;;;;;;;21.90;15.95;;;23.50;70.80;;;;;;5072802;28;20466;-63
2023/06/29 08:27:41;;;;;;;22.52;15.38;;;23.50;70.50;;;;;;5056558;28;20345;-63
2023/06/29 08:30:10;;;;;;;20.70;15.77;;;23.60;70.20;;;;;;5072028;28;20035;-63
2023/06/29 08:32:36;;;;;;;23.23;15.32;;;23.70;70.00;;;;;;5073276;28;20047;-63
2023/06/29 08:35:02;;;;;;;22.52;15.35;;;23.80;69.60;;;;;;5055921;28;20032;-64
2023/06/29 08:37:28;;;;;;;20.48;15.02;;;23.90;69.10;;;;;;5073502;28;20112;-63
2023/06/29 08:39:57;;;;;;;23.60;14.38;;;24.10;68.60;;;;;;5072313;28;20103;-63
2023/06/29 08:42:24;;;;;;;20.50;14.75;;;24.30;68.00;;;;;;5073251;28;20062;-63
2023/06/29 08:44:51;;;;;;;21.55;13.90;;;24.50;67.30;;;;;;5055537;28;20051;-64
2023/06/29 08:47:18;;;;;;;22.70;14.75;;;24.80;66.70;;;;;;5074217;28;20438;-63
2023/06/29 08:49:45;;;;;;;20.80;15.85;;;25.10;66.20;;;;;;5054803;28;20438;-63
2023/06/29 08:52:20;;;;;;;21.00;15.02;;;25.30;65.60;;;;;;5053190;28;20051;-63
2023/06/29 08:54:47;;;;;;;23.25;14.75;;;25.50;64.90;;;;;;5069225;28;20032;-64
2023/06/29 08:57:13;;;;;;;22.77;15.60;;;25.70;64.60;;;;;;5074053;28;20050;-63
2023/06/29 08:59:40;;;;;;;22.52;15.45;;;25.70;64.00;;;;;;5074616;28;20078;-64
2023/06/29 09:02:06;;;;;;;20.58;14.80;;;25.80;63.70;;;;;;5072668;28;20036;-63
2023/06/29 09:04:32;;;;;;;19.98;14.02;;;25.90;63.60;;;;;;5056352;28;20036;-63
2023/06/29 09:06:58;;;;;;;19.75;14.73;;;25.90;63.60;;;;;;5074403;28;20031;-63
2023/06/29 09:09:24;;;;;;;20.65;14.73;;;25.90;63.40;;;;;;5074025;28;20339;-63
2023/06/29 09:11:51;;;;;;;21.90;14.27;;;25.90;63.10;;;;;;5055125;28;20037;-63
2023/06/29 09:14:17;;;;;;;21.08;14.48;;;25.90;63.00;;;;;;5073495;28;20033;-63
2023/06/29 09:17:01;;;;;;;19.33;14.85;;;26.00;62.90;;;;;;5074643;28;20031;-63
2023/06/29 09:19:27;;;;;;;21.83;15.68;;;26.00;62.50;;;;;;5056877;28;20067;-63
2023/06/29 09:21:54;;;;;;;20.33;15.13;;;26.00;62.30;;;;;;5073257;28;20112;-63
2023/06/29 09:24:20;;;;;;;21.27;15.63;;;26.10;62.00;;;;;;5073095;28;20029;-63
2023/06/29 09:26:53;;;;;;;23.92;16.50;;;26.10;61.70;;;;;;5056416;28;20063;-63
2023/06/29 09:29:20;;;;;;;22.27;15.45;;;26.20;61.40;;;;;;5056191;28;20084;-63
2023/06/29 09:31:58;;;;;;;22.10;15.57;;;26.30;61.10;;;;;;5055391;28;20060;-63
2023/06/29 09:34:26;;;;;;;20.02;14.90;;;26.30;60.40;;;;;;5071372;28;20425;-63
2023/06/29 09:36:53;;;;;;;22.27;15.13;;;26.50;60.40;;;;;;5056015;28;20035;-63
2023/06/29 09:39:19;;;;;;;21.40;15.68;;;26.50;60.10;;;;;;5073926;28;20036;-63
2023/06/29 09:41:56;;;;;;;21.75;16.02;;;26.60;59.90;;;;;;5056483;28;20028;-64
2023/06/29 09:44:26;;;;;;;20.67;14.93;;;26.70;59.70;;;;;;5073263;28;20034;-64
2023/06/29 09:46:53;;;;;;;20.00;14.47;;;26.80;59.50;;;;;;5072461;28;20048;-63
2023/06/29 09:49:19;;;;;;;20.80;14.77;;;26.90;59.40;;;;;;5073231;28;20060;-63
2023/06/29 09:51:45;;;;;;;20.60;15.57;;;26.90;59.20;;;;;;5058649;28;20047;-63
2023/06/29 09:54:14;;;;;;;19.35;14.43;;;26.90;59.00;;;;;;5059016;28;20461;-63
2023/06/29 09:56:44;;;;;;;21.90;14.85;;;27.00;58.80;;;;;;5057485;28;20077;-64
2023/06/29 09:59:13;;;;;;;21.42;15.20;;;27.10;58.60;;;;;;5075544;28;20028;-63
2023/06/29 10:01:42;;;;;;;20.10;14.40;;;27.10;58.40;;;;;;5076980;28;20095;-63
2023/06/29 10:04:08;;;;;;;20.17;14.70;;;27.10;58.40;;;;;;5059048;28;20024;-64
2023/06/29 10:06:36;;;;;;;20.27;14.80;;;27.10;58.50;;;;;;5075746;28;20479;-62
2023/06/29 10:09:04;;;;;;;20.60;15.73;;;27.00;58.50;;;;;;5075726;28;20028;-62
2023/06/29 10:11:34;;;;;;;21.35;15.10;;;26.90;58.20;;;;;;5077173;28;20119;-62
2023/06/29 10:14:03;;;;;;;19.88;14.25;;;26.80;58.20;;;;;;5076180;28;20024;-62
2023/06/29 10:16:34;;;;;;;21.35;14.65;;;26.70;58.50;;;;;;5075038;28;20044;-63
2023/06/29 10:19:26;;;;;;;21.23;14.48;;;26.60;58.50;;;;;;5038560;28;20036;-63
2023/06/29 10:22:03;;;;;;;21.63;14.73;;;26.50;58.40;;;;;;5068969;28;20119;-63
2023/06/29 10:24:39;;;;;;;21.90;15.10;;;26.30;58.40;;;;;;5073686;28;20028;-62
2023/06/29 10:27:07;;;;;;;20.05;13.73;;;26.10;58.40;;;;;;5058021;28;20337;-63
2023/06/29 10:29:47;;;;;;;20.17;14.27;;;26.00;58.50;;;;;;5055091;28;20064;-62
2023/06/29 10:32:37;;;;;;;19.88;14.02;;;25.80;58.60;;;;;;5075608;28;20028;-63
2023/06/29 10:35:02;;;;;;;19.77;14.40;;;25.80;59.00;;;;;;5063770;28;20048;-62
2023/06/29 10:37:33;;;;;;;20.17;14.02;;;25.80;59.00;;;;;;5075678;28;20024;-63
2023/06/29 10:39:58;;;;;;;21.67;14.32;;;25.90;59.50;;;;;;5056372;28;20055;-62
2023/06/29 10:42:24;;;;;;;19.38;14.05;;;26.10;58.60;;;;;;5056831;28;20442;-64
2023/06/29 10:44:50;;;;;;;19.42;13.68;;;26.40;58.30;;;;;;5055581;28;20045;-62
2023/06/29 10:47:27;;;;;;;20.02;13.98;;;26.50;57.90;;;;;;5075301;28;20038;-63
2023/06/29 10:50:17;;;;;;;18.58;13.65;;;26.60;57.40;;;;;;5074423;28;20040;-62
2023/06/29 10:52:43;;;;;;;17.73;13.23;;;26.60;57.40;;;;;;5072924;28;20066;-63
2023/06/29 10:55:18;;;;;;;19.48;14.07;;;26.60;57.40;;;;;;5070889;28;20043;-65
2023/06/29 10:57:51;;;;;;;19.95;14.55;;;26.70;57.00;;;;;;5070990;28;20079;-63
2023/06/29 11:00:18;;;;;;;18.75;13.95;;;26.80;56.60;;;;;;5070985;28;20020;-63
2023/06/29 11:02:46;;;;;;;20.70;13.52;;;26.80;56.60;;;;;;5073410;28;20033;-63
2023/06/29 11:05:16;;;;;;;18.70;12.63;;;26.70;56.80;;;;;;5074950;28;20031;-63
2023/06/29 11:07:43;;;;;;;17.52;12.65;;;26.70;56.80;;;;;;5074538;28;20034;-64
2023/06/29 11:10:10;;;;;;;19.25;14.48;;;26.70;56.70;;;;;;5067801;28;20128;-63
2023/06/29 11:12:40;;;;;;;19.23;12.55;;;26.70;56.60;;;;;;5074468;28;20055;-63
2023/06/29 11:15:13;;;;;;;16.60;12.40;;;26.70;56.30;;;;;;5075815;28;20044;-63
2023/06/29 11:17:43;;;;;;;17.80;10.88;;;26.60;56.00;;;;;;5075088;28;20438;-63
2023/06/29 11:20:16;;;;;;;15.70;11.77;;;26.50;56.50;;;;;;5071642;28;20032;-64
2023/06/29 11:22:43;;;;;;;15.82;11.02;;;26.50;55.60;;;;;;5062314;28;20024;-64
2023/06/29 11:25:12;;;;;;;17.27;12.05;;;26.30;55.60;;;;;;5074743;28;20039;-63
2023/06/29 11:27:38;;;;;;;15.45;10.52;;;26.30;55.70;;;;;;5040403;28;20217;-63
2023/06/29 11:30:07;;;;;;;19.75;12.70;;;26.30;55.90;;;;;;5072812;28;20081;-63
2023/06/29 11:32:33;;;;;;;17.40;13.15;;;26.30;55.90;;;;;;5072679;28;20067;-64
2023/06/29 11:35:10;;;;;;;17.25;12.27;;;26.30;55.90;;;;;;5055952;28;20054;-63
2023/06/29 11:37:37;;;;;;;17.98;12.70;;;26.30;55.90;;;;;;5074196;28;20082;-63
2023/06/29 11:40:10;;;;;;;19.73;13.63;;;26.40;55.80;;;;;;5055165;28;20045;-63
2023/06/29 11:42:36;;;;;;;22.02;13.85;;;26.50;55.60;;;;;;5071284;28;20040;-63
2023/06/29 11:45:09;;;;;;;19.65;14.05;;;26.50;55.20;;;;;;5074354;28;20028;-63
2023/06/29 11:47:35;;;;;;;17.25;13.43;;;26.50;54.90;;;;;;5074251;28;20060;-63
2023/06/29 11:50:03;;;;;;;20.73;14.45;;;26.50;55.20;;;;;;5055328;28;20029;-63
2023/06/29 11:52:31;;;;;;;22.27;15.52;;;26.50;55.10;;;;;;5039788;28;20400;-64
2023/06/29 11:55:00;;;;;;;21.15;15.00;;;26.60;55.00;;;;;;5074255;28;20046;-63
2023/06/29 11:57:30;;;;;;;20.80;14.82;;;26.60;55.50;;;;;;5074818;28;20029;-63
2023/06/29 11:59:56;;;;;;;22.05;14.73;;;26.70;55.00;;;;;;5073985;28;20039;-63
2023/06/29 12:02:23;;;;;;;21.35;15.43;;;26.70;54.80;;;;;;5073828;28;20024;-63
2023/06/29 12:05:00;;;;;;;21.65;15.20;;;26.80;54.90;;;;;;5074804;28;20044;-63
2023/06/29 12:07:38;;;;;;;20.00;14.32;;;26.90;54.90;;;;;;5069152;28;20513;-63
2023/06/29 12:10:09;;;;;;;19.48;14.25;;;27.00;54.60;;;;;;5071321;28;20051;-63
2023/06/29 12:12:36;;;;;;;19.88;14.48;;;27.10;54.50;;;;;;5051156;28;20333;-63
2023/06/29 12:15:17;;;;;;;21.75;14.52;;;27.10;54.50;;;;;;5052405;28;20104;-64
2023/06/29 12:17:44;;;;;;;20.23;14.85;;;27.10;54.40;;;;;;5069476;28;20046;-63
2023/06/29 12:20:21;;;;;;;20.60;15.63;;;27.20;54.60;;;;;;5036156;28;20394;-63
2023/06/29 12:22:54;;;;;;;22.73;15.25;;;27.20;54.50;;;;;;5054712;28;20027;-63
2023/06/29 12:25:21;;;;;;;22.98;16.73;;;27.10;54.70;;;;;;5067845;28;20029;-63
2023/06/29 12:27:49;;;;;;;22.13;15.30;;;27.00;54.90;;;;;;5069428;28;20028;-63
2023/06/29 12:30:20;;;;;;;20.50;15.95;;;26.90;55.20;;;;;;5072018;28;20046;-64